createdAt,value
2023-03-29T00:00:40.275Z,1003.4
2023-03-29T00:01:41.271Z,1003.3
2023-03-29T00:02:42.557Z,1003.3
2023-03-29T00:03:43.835Z,1003.3
2023-03-29T00:04:45.661Z,1003.3
2023-03-29T00:05:46.844Z,1003.3
2023-03-29T00:06:48.008Z,1003.3
2023-03-29T00:07:49.178Z,1003.3
2023-03-29T00:08:50.154Z,1003.2
2023-03-29T00:09:51.257Z,1003.2
2023-03-29T00:10:52.417Z,1003.2
2023-03-29T00:11:53.396Z,1003.2
2023-03-29T00:12:54.559Z,1003.2
2023-03-29T00:13:55.726Z,1003.2
2023-03-29T00:14:56.891Z,1003.1
2023-03-29T00:15:58.053Z,1003.1
2023-03-29T00:16:59.506Z,1003.2
2023-03-29T00:18:01.002Z,1003.2
2023-03-29T00:19:01.976Z,1003.2
2023-03-29T00:20:03.139Z,1003.1
2023-03-29T00:21:04.808Z,1003.1
2023-03-29T00:22:06.106Z,1003.1
2023-03-29T00:23:07.245Z,1003.1
2023-03-29T00:24:08.415Z,1003.1
2023-03-29T00:25:09.571Z,1003.1
2023-03-29T00:26:10.738Z,1003.1
2023-03-29T00:27:11.906Z,1003.1
2023-03-29T00:28:13.070Z,1003.1
2023-03-29T00:29:14.241Z,1003.1
2023-03-29T00:30:15.436Z,1003.1
2023-03-29T00:31:16.871Z,1003
2023-03-29T00:32:18.142Z,1003
2023-03-29T00:33:19.364Z,1002.9
2023-03-29T00:34:20.530Z,1002.9
2023-03-29T00:35:21.793Z,1002.9
2023-03-29T00:36:22.949Z,1002.9
2023-03-29T00:37:24.119Z,1002.9
2023-03-29T00:38:25.297Z,1002.9
2023-03-29T00:39:26.477Z,1002.9
2023-03-29T00:40:27.621Z,1002.9
2023-03-29T00:41:28.786Z,1002.9
2023-03-29T00:42:29.755Z,1002.9
2023-03-29T00:43:30.734Z,1002.9
2023-03-29T00:44:31.897Z,1002.9
2023-03-29T00:45:33.056Z,1002.9
2023-03-29T00:46:34.284Z,1002.9
2023-03-29T00:47:35.908Z,1002.9
2023-03-29T00:48:37.223Z,1002.9
2023-03-29T00:49:38.196Z,1002.9
2023-03-29T00:50:39.214Z,1002.8
2023-03-29T00:51:40.375Z,1002.8
2023-03-29T00:52:41.391Z,1002.8
2023-03-29T00:53:42.558Z,1002.8
2023-03-29T00:54:43.560Z,1002.8
2023-03-29T00:55:45.187Z,1002.8
2023-03-29T00:56:46.442Z,1002.7
2023-03-29T00:57:47.696Z,1002.7
2023-03-29T00:58:48.725Z,1002.7
2023-03-29T00:59:49.877Z,1002.7
2023-03-29T01:00:51.040Z,1002.7
2023-03-29T01:01:52.038Z,1002.7
2023-03-29T01:02:53.466Z,1002.7
2023-03-29T01:03:55.224Z,1002.7
2023-03-29T01:04:56.469Z,1002.7
2023-03-29T01:05:57.633Z,1002.7
2023-03-29T01:06:58.976Z,1002.6
2023-03-29T01:08:00.149Z,1002.6
2023-03-29T01:09:01.213Z,1002.6
2023-03-29T01:10:02.166Z,1002.6
2023-03-29T01:11:03.852Z,1002.6
2023-03-29T01:12:05.560Z,1002.5
2023-03-29T01:13:06.533Z,1002.5
2023-03-29T01:14:07.355Z,1002.5
2023-03-29T01:15:08.516Z,1002.5
2023-03-29T01:16:09.790Z,1002.5
2023-03-29T01:17:10.937Z,1002.5
2023-03-29T01:18:12.177Z,1002.5
2023-03-29T01:19:13.176Z,1002.5
2023-03-29T01:20:14.378Z,1002.4
2023-03-29T01:21:15.615Z,1002.4
2023-03-29T01:22:16.784Z,1002.4
2023-03-29T01:23:17.953Z,1002.4
2023-03-29T01:24:18.968Z,1002.4
2023-03-29T01:25:20.131Z,1002.4
2023-03-29T01:26:21.108Z,1002.4
2023-03-29T01:27:22.264Z,1002.4
2023-03-29T01:28:23.436Z,1002.4
2023-03-29T01:29:24.599Z,1002.3
2023-03-29T01:30:25.569Z,1002.3
2023-03-29T01:31:26.776Z,1002.3
2023-03-29T01:32:27.981Z,1002.3
2023-03-29T01:33:29.248Z,1002.3
2023-03-29T01:34:30.384Z,1002.2
2023-03-29T01:35:31.560Z,1002.2
2023-03-29T01:36:32.712Z,1002.2
2023-03-29T01:37:33.884Z,1002.2
2023-03-29T01:38:35.044Z,1002.3
2023-03-29T01:39:36.072Z,1002.3
2023-03-29T01:40:37.046Z,1002.3
2023-03-29T01:41:38.210Z,1002.3
2023-03-29T01:42:39.244Z,1002.2
2023-03-29T01:43:40.408Z,1002.2
2023-03-29T01:44:41.574Z,1002.1
2023-03-29T01:45:42.799Z,1002.1
2023-03-29T01:46:44.055Z,1002.1
2023-03-29T01:47:45.052Z,1002.1
2023-03-29T01:48:46.277Z,1002.1
2023-03-29T01:49:47.411Z,1002.1
2023-03-29T01:50:48.388Z,1002.1
2023-03-29T01:51:49.551Z,1002
2023-03-29T01:52:50.720Z,1002
2023-03-29T01:53:51.884Z,1002
2023-03-29T01:54:53.049Z,1001.9
2023-03-29T01:55:54.216Z,1001.9
2023-03-29T01:56:55.658Z,1001.9
2023-03-29T01:57:56.760Z,1001.9
2023-03-29T01:58:57.725Z,1001.9
2023-03-29T01:59:58.892Z,1001.9
2023-03-29T02:01:00.797Z,1001.9
2023-03-29T02:02:02.226Z,1001.8
2023-03-29T02:03:03.626Z,1001.8
2023-03-29T02:04:04.918Z,1001.8
2023-03-29T02:05:05.956Z,1001.8
2023-03-29T02:06:06.894Z,1001.8
2023-03-29T02:07:08.064Z,1001.9
2023-03-29T02:08:09.223Z,1001.8
2023-03-29T02:09:10.388Z,1001.8
2023-03-29T02:10:11.561Z,1001.8
2023-03-29T02:11:12.725Z,1001.8
2023-03-29T02:12:13.891Z,1001.8
2023-03-29T02:13:15.051Z,1001.8
2023-03-29T02:14:16.075Z,1001.8
2023-03-29T02:15:17.234Z,1001.8
2023-03-29T02:16:18.330Z,1001.8
2023-03-29T02:17:19.528Z,1001.8
2023-03-29T02:18:20.696Z,1001.8
2023-03-29T02:19:21.694Z,1001.8
2023-03-29T02:20:22.827Z,1001.8
2023-03-29T02:21:24.011Z,1001.7
2023-03-29T02:22:25.169Z,1001.7
2023-03-29T02:23:26.340Z,1001.7
2023-03-29T02:24:27.642Z,1001.7
2023-03-29T02:25:28.781Z,1001.7
2023-03-29T02:26:29.942Z,1001.8
2023-03-29T02:27:31.098Z,1001.7
2023-03-29T02:28:32.276Z,1001.7
2023-03-29T02:29:33.433Z,1001.7
2023-03-29T02:30:34.598Z,1001.7
2023-03-29T02:31:35.936Z,1001.7
2023-03-29T02:32:37.371Z,1001.7
2023-03-29T02:33:38.477Z,1001.7
2023-03-29T02:34:39.664Z,1001.7
2023-03-29T02:35:40.832Z,1001.7
2023-03-29T02:36:41.989Z,1001.7
2023-03-29T02:37:43.163Z,1001.6
2023-03-29T02:38:44.317Z,1001.7
2023-03-29T02:39:45.484Z,1001.6
2023-03-29T02:40:46.457Z,1001.6
2023-03-29T02:41:47.620Z,1001.6
2023-03-29T02:42:48.631Z,1001.6
2023-03-29T02:43:49.800Z,1001.6
2023-03-29T02:44:50.778Z,1001.6
2023-03-29T02:45:51.937Z,1001.6
2023-03-29T02:46:53.240Z,1001.6
2023-03-29T02:47:54.814Z,1001.6
2023-03-29T02:48:55.887Z,1001.6
2023-03-29T02:49:57.077Z,1001.6
2023-03-29T02:50:58.223Z,1001.6
2023-03-29T02:51:59.212Z,1001.6
2023-03-29T02:53:00.374Z,1001.5
2023-03-29T02:54:01.546Z,1001.5
2023-03-29T02:55:02.573Z,1001.5
2023-03-29T02:56:03.740Z,1001.5
2023-03-29T02:57:04.995Z,1001.5
2023-03-29T02:58:06.303Z,1001.4
2023-03-29T02:59:07.472Z,1001.4
2023-03-29T03:00:08.636Z,1001.4
2023-03-29T03:01:09.803Z,1001.3
2023-03-29T03:02:10.759Z,1001.3
2023-03-29T03:03:12.396Z,1001.3
2023-03-29T03:04:14.048Z,1001.3
2023-03-29T03:05:15.043Z,1001.3
2023-03-29T03:06:16.000Z,1001.3
2023-03-29T03:07:16.975Z,1001.3
2023-03-29T03:08:18.257Z,1001.3
2023-03-29T03:09:19.424Z,1001.3
2023-03-29T03:10:20.414Z,1001.3
2023-03-29T03:11:21.562Z,1001.2
2023-03-29T03:12:22.573Z,1001.3
2023-03-29T03:13:23.395Z,1001.3
2023-03-29T03:14:24.369Z,1001.3
2023-03-29T03:15:25.533Z,1001.3
2023-03-29T03:16:26.760Z,1001.3
2023-03-29T03:17:28.057Z,1001.3
2023-03-29T03:18:29.204Z,1001.3
2023-03-29T03:19:30.373Z,1001.3
2023-03-29T03:20:31.671Z,1001.3
2023-03-29T03:21:32.811Z,1001.3
2023-03-29T03:22:33.971Z,1001.2
2023-03-29T03:23:35.138Z,1001.2
2023-03-29T03:24:36.303Z,1001.2
2023-03-29T03:25:37.466Z,1001.2
2023-03-29T03:26:38.641Z,1001.2
2023-03-29T03:27:39.842Z,1001.2
2023-03-29T03:28:40.977Z,1001.2
2023-03-29T03:29:42.194Z,1001.2
2023-03-29T03:30:43.496Z,1001.2
2023-03-29T03:31:45.307Z,1001.2
2023-03-29T03:32:46.506Z,1001.3
2023-03-29T03:33:47.778Z,1001.3
2023-03-29T03:34:48.949Z,1001.3
2023-03-29T03:35:50.176Z,1001.2
2023-03-29T03:36:51.428Z,1001.2
2023-03-29T03:37:52.599Z,1001.2
2023-03-29T03:38:53.765Z,1001.2
2023-03-29T03:39:54.932Z,1001.2
2023-03-29T03:40:56.095Z,1001.2
2023-03-29T03:41:57.286Z,1001.2
2023-03-29T03:42:58.430Z,1001.2
2023-03-29T03:43:59.592Z,1001.2
2023-03-29T03:45:00.764Z,1001.2
2023-03-29T03:46:02.135Z,1001.2
2023-03-29T03:47:03.335Z,1001.2
2023-03-29T03:48:04.554Z,1001.2
2023-03-29T03:49:13.500Z,1001.2
2023-03-29T03:50:14.630Z,1001.2
2023-03-29T03:51:15.824Z,1001.1
2023-03-29T03:52:16.958Z,1001.1
2023-03-29T03:53:18.131Z,1001.2
2023-03-29T03:54:19.288Z,1001.1
2023-03-29T03:55:20.454Z,1001.1
2023-03-29T03:56:21.618Z,1001.1
2023-03-29T03:57:22.929Z,1001.1
2023-03-29T03:58:24.089Z,1001.1
2023-03-29T03:59:25.259Z,1001.1
2023-03-29T04:00:26.428Z,1001.1
2023-03-29T04:01:27.591Z,1001.1
2023-03-29T04:02:29.038Z,1001.1
2023-03-29T04:03:30.649Z,1001.1
2023-03-29T04:04:31.975Z,1001.1
2023-03-29T04:05:33.398Z,1001.1
2023-03-29T04:06:34.599Z,1001.1
2023-03-29T04:07:35.742Z,1001.1
2023-03-29T04:08:36.902Z,1001
2023-03-29T04:09:38.065Z,1001
2023-03-29T04:10:39.232Z,1001
2023-03-29T04:11:40.397Z,1001
2023-03-29T04:12:41.568Z,1001
2023-03-29T04:13:42.728Z,1001
2023-03-29T04:14:43.901Z,1001.1
2023-03-29T04:15:45.097Z,1001
2023-03-29T04:16:46.384Z,1001.1
2023-03-29T04:17:47.634Z,1001
2023-03-29T04:18:49.117Z,1001
2023-03-29T04:19:50.498Z,1001
2023-03-29T04:20:51.676Z,1001
2023-03-29T04:21:52.858Z,1001
2023-03-29T04:22:54.102Z,1001
2023-03-29T04:23:55.268Z,1001
2023-03-29T04:24:56.433Z,1001
2023-03-29T04:25:57.603Z,1001
2023-03-29T04:26:58.764Z,1001
2023-03-29T04:27:59.934Z,1001
2023-03-29T04:29:01.108Z,1000.9
2023-03-29T04:30:02.267Z,1000.9
2023-03-29T04:31:03.944Z,1000.9
2023-03-29T04:32:05.805Z,1000.9
2023-03-29T04:33:06.927Z,1000.9
2023-03-29T04:34:08.212Z,1000.9
2023-03-29T04:35:09.382Z,1000.8
2023-03-29T04:36:10.618Z,1000.8
2023-03-29T04:37:11.822Z,1000.8
2023-03-29T04:38:12.956Z,1000.8
2023-03-29T04:39:14.117Z,1000.8
2023-03-29T04:40:15.280Z,1000.7
2023-03-29T04:41:16.452Z,1000.7
2023-03-29T04:42:17.643Z,1000.7
2023-03-29T04:43:18.786Z,1000.7
2023-03-29T04:44:19.951Z,1000.7
2023-03-29T04:45:21.165Z,1000.6
2023-03-29T04:46:22.638Z,1000.6
2023-03-29T04:47:24.179Z,1000.6
2023-03-29T04:48:25.335Z,1000.6
2023-03-29T04:49:26.644Z,1000.5
2023-03-29T04:50:27.805Z,1000.5
2023-03-29T04:51:29.007Z,1000.5
2023-03-29T04:52:30.181Z,1000.5
2023-03-29T04:53:31.307Z,1000.5
2023-03-29T04:54:32.478Z,1000.5
2023-03-29T04:55:33.640Z,1000.5
2023-03-29T04:56:34.809Z,1000.5
2023-03-29T04:57:35.968Z,1000.5
2023-03-29T04:58:37.136Z,1000.5
2023-03-29T04:59:38.303Z,1000.5
2023-03-29T05:00:39.474Z,1000.5
2023-03-29T05:01:40.734Z,1000.5
2023-03-29T05:02:42.107Z,1000.4
2023-03-29T05:03:43.303Z,1000.4
2023-03-29T05:04:44.480Z,1000.4
2023-03-29T05:05:45.706Z,1000.4
2023-03-29T05:06:46.874Z,1000.4
2023-03-29T05:07:48.093Z,1000.5
2023-03-29T05:08:49.274Z,1000.5
2023-03-29T05:09:50.438Z,1000.6
2023-03-29T05:10:51.607Z,1000.6
2023-03-29T05:11:52.786Z,1000.7
2023-03-29T05:12:54.087Z,1000.7
2023-03-29T05:13:55.455Z,1000.7
2023-03-29T05:14:56.619Z,1000.7
2023-03-29T05:15:57.835Z,1000.6
2023-03-29T05:16:59.020Z,1000.6
2023-03-29T05:18:00.362Z,1000.6
2023-03-29T05:19:01.570Z,1000.6
2023-03-29T05:20:02.737Z,1000.6
2023-03-29T05:21:04.475Z,1000.6
2023-03-29T05:22:06.319Z,1000.6
2023-03-29T05:23:07.318Z,1000.5
2023-03-29T05:24:08.774Z,1000.5
2023-03-29T05:25:09.936Z,1000.5
2023-03-29T05:26:11.102Z,1000.6
2023-03-29T05:27:12.270Z,1000.5
2023-03-29T05:28:13.437Z,1000.5
2023-03-29T05:29:14.606Z,1000.5
2023-03-29T05:30:15.899Z,1000.5
2023-03-29T05:31:17.647Z,1000.5
2023-03-29T05:32:18.846Z,1000.5
2023-03-29T05:33:20.007Z,1000.5
2023-03-29T05:34:21.174Z,1000.5
2023-03-29T05:35:22.345Z,1000.5
2023-03-29T05:36:23.507Z,1000.5
2023-03-29T05:37:24.678Z,1000.6
2023-03-29T05:38:25.860Z,1000.6
2023-03-29T05:39:27.001Z,1000.5
2023-03-29T05:40:28.169Z,1000.6
2023-03-29T05:41:29.339Z,1000.6
2023-03-29T05:42:30.498Z,1000.6
2023-03-29T05:43:31.684Z,1000.5
2023-03-29T05:44:32.846Z,1000.5
2023-03-29T05:45:34.192Z,1000.5
2023-03-29T05:46:35.453Z,1000.5
2023-03-29T05:47:36.753Z,1000.5
2023-03-29T05:48:37.915Z,1000.5
2023-03-29T05:49:39.084Z,1000.5
2023-03-29T05:50:40.248Z,1000.5
2023-03-29T05:51:41.415Z,1000.5
2023-03-29T05:52:42.637Z,1000.4
2023-03-29T05:53:43.815Z,1000.4
2023-03-29T05:54:44.961Z,1000.4
2023-03-29T05:55:46.123Z,1000.4
2023-03-29T05:56:47.341Z,1000.5
2023-03-29T05:57:48.475Z,1000.5
2023-03-29T05:58:49.640Z,1000.5
2023-03-29T05:59:51.719Z,1000.5
2023-03-29T06:00:52.886Z,1000.5
2023-03-29T06:01:54.257Z,1000.4
2023-03-29T06:03:09.969Z,1000.4
2023-03-29T06:04:22.572Z,1000.4
2023-03-29T06:05:24.115Z,1000.4
2023-03-29T06:06:25.280Z,1000.4
2023-03-29T06:07:26.452Z,1000.4
2023-03-29T06:08:27.615Z,1000.4
2023-03-29T06:09:28.879Z,1000.4
2023-03-29T06:10:30.017Z,1000.4
2023-03-29T06:11:31.186Z,1000.4
2023-03-29T06:12:32.463Z,1000.4
2023-03-29T06:13:33.627Z,1000.4
2023-03-29T06:14:34.791Z,1000.4
2023-03-29T06:15:35.953Z,1000.4
2023-03-29T06:16:37.136Z,1000.4
2023-03-29T06:17:39.619Z,1000.3
2023-03-29T06:18:41.001Z,1000.3
2023-03-29T06:19:42.169Z,1000.4
2023-03-29T06:20:43.331Z,1000.4
2023-03-29T06:21:44.570Z,1000.4
2023-03-29T06:22:45.735Z,1000.4
2023-03-29T06:23:47.057Z,1000.4
2023-03-29T06:24:48.613Z,1000.4
2023-03-29T06:25:49.821Z,1000.4
2023-03-29T06:26:50.984Z,1000.3
2023-03-29T06:27:52.168Z,1000.3
2023-03-29T06:28:53.327Z,1000.4
2023-03-29T06:29:54.484Z,1000.3
2023-03-29T06:30:55.842Z,1000.3
2023-03-29T06:31:57.682Z,1000.3
2023-03-29T06:32:58.880Z,1000.3
2023-03-29T06:34:00.038Z,1000.3
2023-03-29T06:35:01.201Z,1000.4
2023-03-29T06:36:02.384Z,1000.4
2023-03-29T06:37:03.534Z,1000.4
2023-03-29T06:38:04.698Z,1000.4
2023-03-29T06:39:05.860Z,1000.4
2023-03-29T06:40:07.053Z,1000.4
2023-03-29T06:41:08.286Z,1000.4
2023-03-29T06:42:21.757Z,1000.4
2023-03-29T06:43:23.286Z,1000.4
2023-03-29T06:44:24.444Z,1000.4
2023-03-29T06:45:29.297Z,1000.4
2023-03-29T06:46:30.881Z,1000.4
2023-03-29T06:47:32.247Z,1000.4
2023-03-29T06:48:33.429Z,1000.4
2023-03-29T06:49:34.625Z,1000.4
2023-03-29T06:50:35.765Z,1000.5
2023-03-29T06:51:36.921Z,1000.5
2023-03-29T06:52:38.100Z,1000.5
2023-03-29T06:53:39.254Z,1000.5
2023-03-29T06:54:40.417Z,1000.5
2023-03-29T06:55:41.615Z,1000.5
2023-03-29T06:56:43.316Z,1000.5
2023-03-29T06:57:44.480Z,1000.5
2023-03-29T06:58:45.679Z,1000.5
2023-03-29T06:59:46.810Z,1000.5
2023-03-29T07:00:47.978Z,1000.4
2023-03-29T07:01:49.175Z,1000.5
2023-03-29T07:02:50.590Z,1000.5
2023-03-29T07:03:52.028Z,1000.5
2023-03-29T07:04:53.271Z,1000.5
2023-03-29T07:05:54.438Z,1000.5
2023-03-29T07:06:55.605Z,1000.5
2023-03-29T07:07:56.817Z,1000.5
2023-03-29T07:08:57.923Z,1000.5
2023-03-29T07:09:59.093Z,1000.5
2023-03-29T07:11:00.580Z,1000.5
2023-03-29T07:12:02.363Z,1000.5
2023-03-29T07:13:03.603Z,1000.5
2023-03-29T07:14:04.778Z,1000.5
2023-03-29T07:15:06.184Z,1000.5
2023-03-29T07:16:07.418Z,1000.5
2023-03-29T07:17:08.571Z,1000.5
2023-03-29T07:18:09.962Z,1000.5
2023-03-29T07:19:11.329Z,1000.5
2023-03-29T07:20:12.496Z,1000.5
2023-03-29T07:21:13.680Z,1000.5
2023-03-29T07:22:14.844Z,1000.5
2023-03-29T07:23:16.010Z,1000.5
2023-03-29T07:24:17.178Z,1000.5
2023-03-29T07:25:18.343Z,1000.5
2023-03-29T07:26:30.508Z,1000.5
2023-03-29T07:27:31.863Z,1000.5
2023-03-29T07:28:33.020Z,1000.5
2023-03-29T07:29:34.194Z,1000.5
2023-03-29T07:30:35.358Z,1000.5
2023-03-29T07:31:36.516Z,1000.5
2023-03-29T07:32:37.873Z,1000.6
2023-03-29T07:33:39.332Z,1000.6
2023-03-29T07:34:41.129Z,1000.6
2023-03-29T07:35:42.374Z,1000.6
2023-03-29T07:36:43.603Z,1000.5
2023-03-29T07:37:44.767Z,1000.5
2023-03-29T07:38:45.933Z,1000.5
2023-03-29T07:39:47.097Z,1000.5
2023-03-29T07:40:48.277Z,1000.5
2023-03-29T07:41:49.469Z,1000.5
2023-03-29T07:42:50.710Z,1000.5
2023-03-29T07:43:51.932Z,1000.4
2023-03-29T07:44:53.166Z,1000.5
2023-03-29T07:45:54.489Z,1000.4
2023-03-29T07:46:55.754Z,1000.4
2023-03-29T07:47:57.028Z,1000.4
2023-03-29T07:48:58.532Z,1000.4
2023-03-29T07:49:59.709Z,1000.4
2023-03-29T07:51:01.495Z,1000.4
2023-03-29T07:52:03.267Z,1000.4
2023-03-29T07:53:04.439Z,1000.4
2023-03-29T07:54:05.602Z,1000.3
2023-03-29T07:55:06.769Z,1000.3
2023-03-29T07:56:07.998Z,1000.3
2023-03-29T07:57:09.448Z,1000.3
2023-03-29T07:58:10.884Z,1000.3
2023-03-29T07:59:12.211Z,1000.4
2023-03-29T08:00:13.376Z,1000.3
2023-03-29T08:01:19.600Z,1000.4
2023-03-29T08:02:21.151Z,1000.4
2023-03-29T08:03:22.461Z,1000.4
2023-03-29T08:04:24.025Z,1000.4
2023-03-29T08:05:40.428Z,1000.3
2023-03-29T08:06:43.213Z,1000.4
2023-03-29T08:07:44.389Z,1000.3
2023-03-29T08:08:45.557Z,1000.3
2023-03-29T08:09:46.715Z,1000.3
2023-03-29T08:10:47.873Z,1000.3
2023-03-29T08:11:49.043Z,1000.3
2023-03-29T08:12:50.245Z,1000.3
2023-03-29T08:13:51.375Z,1000.3
2023-03-29T08:14:52.683Z,1000.3
2023-03-29T08:15:53.842Z,1000.3
2023-03-29T08:16:55.132Z,1000.3
2023-03-29T08:17:56.515Z,1000.3
2023-03-29T08:18:57.934Z,1000.3
2023-03-29T08:19:59.096Z,1000.3
2023-03-29T08:21:00.583Z,1000.2
2023-03-29T08:22:02.281Z,1000.2
2023-03-29T08:23:03.447Z,1000.2
2023-03-29T08:24:04.612Z,1000.1
2023-03-29T08:25:05.779Z,1000.1
2023-03-29T08:26:06.962Z,1000.1
2023-03-29T08:27:08.114Z,1000.1
2023-03-29T08:28:09.304Z,1000.1
2023-03-29T08:29:10.448Z,1000.2
2023-03-29T08:30:11.609Z,1000.2
2023-03-29T08:31:12.833Z,1000.2
2023-03-29T08:32:14.340Z,1000.2
2023-03-29T08:33:15.652Z,1000.2
2023-03-29T08:34:17.085Z,1000.2
2023-03-29T08:35:18.288Z,1000.2
2023-03-29T08:36:19.562Z,1000.2
2023-03-29T08:37:20.866Z,1000.2
2023-03-29T08:38:22.032Z,1000.2
2023-03-29T08:39:23.196Z,1000.1
2023-03-29T08:40:24.363Z,1000.1
2023-03-29T08:41:25.534Z,1000.1
2023-03-29T08:42:26.697Z,1000.1
2023-03-29T08:43:27.889Z,1000.1
2023-03-29T08:44:29.138Z,1000.1
2023-03-29T08:45:30.303Z,1000.1
2023-03-29T08:46:35.926Z,1000.1
2023-03-29T08:47:37.266Z,1000.1
2023-03-29T08:48:38.424Z,1000.1
2023-03-29T08:49:39.584Z,1000.1
2023-03-29T08:50:40.754Z,1000.1
2023-03-29T08:51:41.918Z,1000
2023-03-29T08:52:43.090Z,1000
2023-03-29T08:53:44.252Z,1000
2023-03-29T08:54:45.415Z,1000
2023-03-29T08:55:46.582Z,1000
2023-03-29T08:56:47.763Z,1000
2023-03-29T08:57:49.553Z,1000
2023-03-29T08:58:50.862Z,1000
2023-03-29T08:59:52.276Z,999.9
2023-03-29T09:00:53.435Z,1000
2023-03-29T09:01:54.765Z,1000
2023-03-29T09:02:56.066Z,999.9
2023-03-29T09:03:57.498Z,999.9
2023-03-29T09:04:58.870Z,999.9
2023-03-29T09:06:00.037Z,999.9
2023-03-29T09:07:01.199Z,999.9
2023-03-29T09:08:02.369Z,999.9
2023-03-29T09:09:03.536Z,1000
2023-03-29T09:10:04.704Z,1000
2023-03-29T09:11:05.865Z,999.9
2023-03-29T09:12:07.034Z,999.9
2023-03-29T09:13:08.234Z,999.9
2023-03-29T09:14:09.485Z,1000
2023-03-29T09:15:10.614Z,999.9
2023-03-29T09:16:11.804Z,999.9
2023-03-29T09:17:13.068Z,999.9
2023-03-29T09:18:14.357Z,999.9
2023-03-29T09:19:15.559Z,999.9
2023-03-29T09:20:16.723Z,999.9
2023-03-29T09:21:17.896Z,999.9
2023-03-29T09:22:19.055Z,999.9
2023-03-29T09:23:20.230Z,999.9
2023-03-29T09:24:21.388Z,999.9
2023-03-29T09:25:22.563Z,999.9
2023-03-29T09:26:23.722Z,999.9
2023-03-29T09:27:24.887Z,999.9
2023-03-29T09:28:26.058Z,999.9
2023-03-29T09:29:27.246Z,999.9
2023-03-29T09:30:28.384Z,999.9
2023-03-29T09:31:29.569Z,999.9
2023-03-29T09:32:30.883Z,999.8
2023-03-29T09:33:32.143Z,999.9
2023-03-29T09:34:33.307Z,999.9
2023-03-29T09:35:34.374Z,999.9
2023-03-29T09:36:35.636Z,999.9
2023-03-29T09:37:36.802Z,999.9
2023-03-29T09:38:37.972Z,999.9
2023-03-29T09:39:39.128Z,999.9
2023-03-29T09:40:40.299Z,999.9
2023-03-29T09:41:41.459Z,999.9
2023-03-29T09:42:42.628Z,999.9
2023-03-29T09:43:43.401Z,999.9
2023-03-29T09:44:44.860Z,999.9
2023-03-29T09:45:46.175Z,999.9
2023-03-29T09:46:47.352Z,999.9
2023-03-29T09:47:48.430Z,999.9
2023-03-29T09:48:49.430Z,999.9
2023-03-29T09:49:50.445Z,999.8
2023-03-29T09:50:51.729Z,999.8
2023-03-29T09:51:52.915Z,999.8
2023-03-29T09:52:54.076Z,999.8
2023-03-29T09:53:55.247Z,999.8
2023-03-29T09:54:56.415Z,999.7
2023-03-29T09:55:57.587Z,999.7
2023-03-29T09:56:58.774Z,999.8
2023-03-29T09:57:59.957Z,999.8
2023-03-29T09:59:01.120Z,999.8
2023-03-29T10:00:02.124Z,999.8
2023-03-29T10:01:03.806Z,999.8
2023-03-29T10:02:05.625Z,999.8
2023-03-29T10:03:10.777Z,999.7
2023-03-29T10:04:12.316Z,999.8
2023-03-29T10:05:13.213Z,999.7
2023-03-29T10:06:14.187Z,999.7
2023-03-29T10:07:15.364Z,999.7
2023-03-29T10:08:19.710Z,999.7
2023-03-29T10:09:21.428Z,999.6
2023-03-29T10:10:22.594Z,999.6
2023-03-29T10:11:23.814Z,999.6
2023-03-29T10:12:24.650Z,999.6
2023-03-29T10:13:25.807Z,999.6
2023-03-29T10:14:26.975Z,999.6
2023-03-29T10:15:30.816Z,999.5
2023-03-29T10:16:32.056Z,999.6
2023-03-29T10:17:33.485Z,999.6
2023-03-29T10:18:34.446Z,999.5
2023-03-29T10:19:35.660Z,999.5
2023-03-29T10:20:36.853Z,999.5
2023-03-29T10:21:38.015Z,999.5
2023-03-29T10:22:39.021Z,999.5
2023-03-29T10:23:40.221Z,999.5
2023-03-29T10:24:41.359Z,999.4
2023-03-29T10:25:43.475Z,999.4
2023-03-29T10:26:44.627Z,999.4
2023-03-29T10:27:45.796Z,999.4
2023-03-29T10:28:46.957Z,999.4
2023-03-29T10:29:48.123Z,999.4
2023-03-29T10:30:49.481Z,999.3
2023-03-29T10:31:50.838Z,999.3
2023-03-29T10:32:52.011Z,999.3
2023-03-29T10:33:53.221Z,999.3
2023-03-29T10:34:54.393Z,999.3
2023-03-29T10:35:55.622Z,999.3
2023-03-29T10:36:56.865Z,999.3
2023-03-29T10:37:58.025Z,999.3
2023-03-29T10:38:59.201Z,999.3
2023-03-29T10:40:00.378Z,999.3
2023-03-29T10:41:01.954Z,999.3
2023-03-29T10:42:03.451Z,999.3
2023-03-29T10:43:04.612Z,999.3
2023-03-29T10:44:05.924Z,999.3
2023-03-29T10:45:07.085Z,999.3
2023-03-29T10:46:08.309Z,999.2
2023-03-29T10:47:09.734Z,999.2
2023-03-29T10:48:10.931Z,999.2
2023-03-29T10:49:12.085Z,999.2
2023-03-29T10:50:13.359Z,999.2
2023-03-29T10:51:14.699Z,999.2
2023-03-29T10:52:15.843Z,999.2
2023-03-29T10:53:17.009Z,999.2
2023-03-29T10:54:18.177Z,999.2
2023-03-29T10:55:19.345Z,999.2
2023-03-29T10:56:20.506Z,999.2
2023-03-29T10:57:23.388Z,999.2
2023-03-29T10:58:24.630Z,999.2
2023-03-29T10:59:25.786Z,999.2
2023-03-29T11:00:26.970Z,999.2
2023-03-29T11:01:28.181Z,999.2
2023-03-29T11:02:29.864Z,999.2
2023-03-29T11:03:31.528Z,999.2
2023-03-29T11:04:32.991Z,999.2
2023-03-29T11:05:34.159Z,999.3
2023-03-29T11:06:35.802Z,999.3
2023-03-29T11:07:36.922Z,999.2
2023-03-29T11:08:38.093Z,999.2
2023-03-29T11:09:39.254Z,999.3
2023-03-29T11:10:40.421Z,999.3
2023-03-29T11:11:41.741Z,999.3
2023-03-29T11:12:42.906Z,999.3
2023-03-29T11:13:44.064Z,999.3
2023-03-29T11:14:45.231Z,999.2
2023-03-29T11:15:46.445Z,999.3
2023-03-29T11:16:47.666Z,999.3
2023-03-29T11:17:48.953Z,999.3
2023-03-29T11:18:50.116Z,999.2
2023-03-29T11:19:51.087Z,999.2
2023-03-29T11:20:52.252Z,999.2
2023-03-29T11:21:53.077Z,999.2
2023-03-29T11:22:54.245Z,999.2
2023-03-29T11:23:55.401Z,999.2
2023-03-29T11:24:56.578Z,999.3
2023-03-29T11:25:57.743Z,999.2
2023-03-29T11:26:58.759Z,999.2
2023-03-29T11:27:59.729Z,999.2
2023-03-29T11:29:01.015Z,999.2
2023-03-29T11:30:02.182Z,999.2
2023-03-29T11:31:03.719Z,999.2
2023-03-29T11:32:05.462Z,999.2
2023-03-29T11:33:06.799Z,999.2
2023-03-29T11:34:08.075Z,999.2
2023-03-29T11:35:09.245Z,999.2
2023-03-29T11:36:10.311Z,999.1
2023-03-29T11:37:11.451Z,999.1
2023-03-29T11:38:12.616Z,999.1
2023-03-29T11:39:13.785Z,999.1
2023-03-29T11:40:14.952Z,999.1
2023-03-29T11:41:16.117Z,999.1
2023-03-29T11:42:17.292Z,999.1
2023-03-29T11:43:18.446Z,999.1
2023-03-29T11:44:19.612Z,999
2023-03-29T11:45:20.780Z,999
2023-03-29T11:46:22.003Z,999
2023-03-29T11:47:23.119Z,998.9
2023-03-29T11:48:24.401Z,998.9
2023-03-29T11:49:25.562Z,998.9
2023-03-29T11:50:26.548Z,998.9
2023-03-29T11:51:27.526Z,998.9
2023-03-29T11:52:28.495Z,998.9
2023-03-29T11:53:29.464Z,998.9
2023-03-29T11:54:30.475Z,998.9
2023-03-29T11:55:31.442Z,998.9
2023-03-29T11:56:32.610Z,998.9
2023-03-29T11:57:33.578Z,998.9
2023-03-29T11:58:38.968Z,998.8
2023-03-29T11:59:40.146Z,998.8
2023-03-29T12:00:41.299Z,998.8
2023-03-29T12:01:42.536Z,998.8
2023-03-29T12:02:43.951Z,998.8
2023-03-29T12:03:47.629Z,998.8
2023-03-29T12:04:48.801Z,998.8
2023-03-29T12:05:49.947Z,998.8
2023-03-29T12:06:51.110Z,998.8
2023-03-29T12:07:52.080Z,998.8
2023-03-29T12:08:53.245Z,998.8
2023-03-29T12:09:54.436Z,998.8
2023-03-29T12:10:55.384Z,998.8
2023-03-29T12:11:56.354Z,998.8
2023-03-29T12:12:57.549Z,998.7
2023-03-29T12:13:58.498Z,998.7
2023-03-29T12:14:59.660Z,998.7
2023-03-29T12:16:00.824Z,998.7
2023-03-29T12:17:02.058Z,998.7
2023-03-29T12:18:03.495Z,998.7
2023-03-29T12:19:04.666Z,998.7
2023-03-29T12:21:16.671Z,998.7
2023-03-29T12:22:17.640Z,998.6
2023-03-29T12:23:18.808Z,998.6
2023-03-29T12:24:19.969Z,998.6
2023-03-29T12:25:23.449Z,998.6
2023-03-29T12:26:24.435Z,998.6
2023-03-29T12:27:25.592Z,998.6
2023-03-29T12:28:26.561Z,998.6
2023-03-29T12:29:27.735Z,998.6
2023-03-29T12:30:28.700Z,998.6
2023-03-29T12:31:29.885Z,998.6
2023-03-29T12:32:31.182Z,998.6
2023-03-29T12:33:32.356Z,998.6
2023-03-29T12:34:33.491Z,998.5
2023-03-29T12:35:34.874Z,998.6
2023-03-29T12:36:36.027Z,998.6
2023-03-29T12:37:37.225Z,998.6
2023-03-29T12:38:38.357Z,998.6
2023-03-29T12:39:39.536Z,998.6
2023-03-29T12:40:40.535Z,998.6
2023-03-29T12:41:41.738Z,998.5
2023-03-29T12:42:42.970Z,998.5
2023-03-29T12:43:44.137Z,998.5
2023-03-29T12:44:45.306Z,998.4
2023-03-29T12:45:46.487Z,998.4
2023-03-29T12:46:47.621Z,998.3
2023-03-29T12:47:48.873Z,998.3
2023-03-29T12:48:50.052Z,998.3
2023-03-29T12:49:51.189Z,998.3
2023-03-29T12:50:52.368Z,998.4
2023-03-29T12:51:53.526Z,998.4
2023-03-29T12:52:54.697Z,998.4
2023-03-29T12:53:55.858Z,998.4
2023-03-29T12:54:57.054Z,998.4
2023-03-29T12:55:58.007Z,998.4
2023-03-29T12:56:59.090Z,998.3